sensor_id;sensor_type;location;lat;lon;timestamp;pressure;altitude;pressure_sealevel;temperature;humidity
33280;BME280;20403;43.114;12.434;2023-06-01T00:01:25;99160.63;;;15.99;100.00
33280;BME280;20403;43.114;12.434;2023-06-01T00:03:52;99152.19;;;15.96;100.00
33280;BME280;20403;43.114;12.434;2023-06-01T00:06:17;99154.56;;;15.98;100.00
33280;BME280;20403;43.114;12.434;2023-06-01T00:08:43;99152.25;;;16.02;100.00
33280;BME280;20403;43.114;12.434;2023-06-01T00:11:08;99151.94;;;15.98;100.00
33280;BME280;20403;43.114;12.434;2023-06-01T00:13:33;99149.28;;;15.93;100.00
33280;BME280;20403;43.114;12.434;2023-06-01T00:15:59;99153.78;;;15.98;100.00
33280;BME280;20403;43.114;12.434;2023-06-01T00:18:24;99148.53;;;16.03;100.00
33280;BME280;20403;43.114;12.434;2023-06-01T00:20:52;99153.03;;;16.07;100.00
33280;BME280;20403;43.114;12.434;2023-06-01T00:23:18;99155.63;;;15.97;100.00
33280;BME280;20403;43.114;12.434;2023-06-01T00:25:45;99147.22;;;15.95;100.00
33280;BME280;20403;43.114;12.434;2023-06-01T00:28:10;99148.53;;;15.98;100.00
33280;BME280;20403;43.114;12.434;2023-06-01T00:30:36;99147.22;;;16.00;100.00
33280;BME280;20403;43.114;12.434;2023-06-01T00:33:01;99148.28;;;15.99;100.00
33280;BME280;20403;43.114;12.434;2023-06-01T00:35:27;99139.53;;;15.88;100.00
33280;BME280;20403;43.114;12.434;2023-06-01T00:37:52;99134.28;;;15.88;100.00
33280;BME280;20403;43.114;12.434;2023-06-01T00:40:18;99142.19;;;15.93;100.00
33280;BME280;20403;43.114;12.434;2023-06-01T00:42:43;99135.84;;;15.89;100.00
33280;BME280;20403;43.114;12.434;2023-06-01T00:45:09;99138.22;;;15.91;100.00
33280;BME280;20403;43.114;12.434;2023-06-01T00:47:39;99133.75;;;15.86;100.00
33280;BME280;20403;43.114;12.434;2023-06-01T00:50:07;99131.97;;;15.97;100.00
33280;BME280;20403;43.114;12.434;2023-06-01T00:52:32;99116.19;;;16.02;100.00
33280;BME280;20403;43.114;12.434;2023-06-01T00:54:58;99117.78;;;16.03;100.00
33280;BME280;20403;43.114;12.434;2023-06-01T00:57:24;99123.25;;;15.91;100.00
33280;BME280;20403;43.114;12.434;2023-06-01T00:59:52;99129.28;;;15.87;100.00
33280;BME280;20403;43.114;12.434;2023-06-01T01:02:18;99126.09;;;15.80;100.00
33280;BME280;20403;43.114;12.434;2023-06-01T01:04:43;99120.13;;;15.94;100.00
33280;BME280;20403;43.114;12.434;2023-06-01T01:09:53;99120.03;;;15.79;100.00
33280;BME280;20403;43.114;12.434;2023-06-01T01:12:35;99121.31;;;15.71;100.00
33280;BME280;20403;43.114;12.434;2023-06-01T01:15:21;99124.41;;;15.68;100.00
33280;BME280;20403;43.114;12.434;2023-06-01T01:17:51;99118.38;;;15.68;100.00
33280;BME280;20403;43.114;12.434;2023-06-01T01:20:22;99114.69;;;15.69;100.00
33280;BME280;20403;43.114;12.434;2023-06-01T01:28:32;99119.66;;;15.65;100.00
33280;BME280;20403;43.114;12.434;2023-06-01T01:30:59;99115.72;;;15.68;100.00
33280;BME280;20403;43.114;12.434;2023-06-01T01:33:28;99116.22;;;15.60;100.00
33280;BME280;20403;43.114;12.434;2023-06-01T01:35:54;99119.34;;;15.57;100.00
33280;BME280;20403;43.114;12.434;2023-06-01T01:38:20;99124.06;;;15.54;100.00
33280;BME280;20403;43.114;12.434;2023-06-01T01:40:46;99118.34;;;15.63;100.00
33280;BME280;20403;43.114;12.434;2023-06-01T01:43:11;99118.09;;;15.64;100.00
33280;BME280;20403;43.114;12.434;2023-06-01T01:45:37;99110.69;;;15.61;100.00
33280;BME280;20403;43.114;12.434;2023-06-01T01:48:37;99119.63;;;15.55;100.00
33280;BME280;20403;43.114;12.434;2023-06-01T01:51:10;99117.22;;;15.53;100.00
33280;BME280;20403;43.114;12.434;2023-06-01T01:53:39;99122.69;;;15.47;100.00
33280;BME280;20403;43.114;12.434;2023-06-01T01:56:07;99121.34;;;15.39;100.00
33280;BME280;20403;43.114;12.434;2023-06-01T01:58:33;99128.38;;;15.33;100.00
33280;BME280;20403;43.114;12.434;2023-06-01T02:00:59;99127.03;;;15.26;100.00
33280;BME280;20403;43.114;12.434;2023-06-01T02:03:24;99135.06;;;15.14;100.00
33280;BME280;20403;43.114;12.434;2023-06-01T02:05:50;99128.22;;;15.13;100.00
33280;BME280;20403;43.114;12.434;2023-06-01T02:08:15;99125.56;;;15.08;100.00
33280;BME280;20403;43.114;12.434;2023-06-01T02:10:41;99124.75;;;15.02;100.00
33280;BME280;20403;43.114;12.434;2023-06-01T02:13:06;99120.28;;;15.03;100.00
33280;BME280;20403;43.114;12.434;2023-06-01T02:15:32;99124.44;;;14.99;100.00
33280;BME280;20403;43.114;12.434;2023-06-01T02:17:57;99120.50;;;15.01;100.00
33280;BME280;20403;43.114;12.434;2023-06-01T02:20:24;99121.09;;;15.08;100.00
33280;BME280;20403;43.114;12.434;2023-06-01T02:22:50;99114.16;;;14.97;100.00
33280;BME280;20403;43.114;12.434;2023-06-01T02:25:15;99110.19;;;14.89;100.00
33280;BME280;20403;43.114;12.434;2023-06-01T02:27:41;99117.03;;;14.90;100.00
33280;BME280;20403;43.114;12.434;2023-06-01T02:30:06;99113.16;;;14.98;100.00
33280;BME280;20403;43.114;12.434;2023-06-01T02:32:33;99108.72;;;15.04;100.00
33280;BME280;20403;43.114;12.434;2023-06-01T02:35:00;99100.19;;;14.86;100.00
33280;BME280;20403;43.114;12.434;2023-06-01T02:37:25;99111.13;;;14.78;100.00
33280;BME280;20403;43.114;12.434;2023-06-01T02:39:51;99106.38;;;14.75;100.00
33280;BME280;20403;43.114;12.434;2023-06-01T02:42:16;99106.94;;;14.77;100.00
33280;BME280;20403;43.114;12.434;2023-06-01T02:44:41;99107.72;;;14.78;100.00
33280;BME280;20403;43.114;12.434;2023-06-01T02:47:07;99111.66;;;14.80;100.00
33280;BME280;20403;43.114;12.434;2023-06-01T02:49:32;99112.75;;;14.84;100.00
33280;BME280;20403;43.114;12.434;2023-06-01T02:51:58;99112.56;;;14.91;100.00
33280;BME280;20403;43.114;12.434;2023-06-01T02:54:23;99118.56;;;14.86;100.00
33280;BME280;20403;43.114;12.434;2023-06-01T02:56:49;99122.06;;;14.97;100.00
33280;BME280;20403;43.114;12.434;2023-06-01T02:59:14;99116.53;;;14.94;100.00
33280;BME280;20403;43.114;12.434;2023-06-01T03:01:40;99118.41;;;14.98;100.00
33280;BME280;20403;43.114;12.434;2023-06-01T03:04:05;99123.69;;;15.03;100.00
33280;BME280;20403;43.114;12.434;2023-06-01T03:06:32;99125.28;;;15.04;100.00
33280;BME280;20403;43.114;12.434;2023-06-01T03:09:02;99132.94;;;15.11;100.00
33280;BME280;20403;43.114;12.434;2023-06-01T03:11:28;99130.31;;;15.11;100.00
33280;BME280;20403;43.114;12.434;2023-06-01T03:13:53;99123.69;;;15.03;100.00
33280;BME280;20403;43.114;12.434;2023-06-01T03:16:19;99121.63;;;15.10;100.00
33280;BME280;20403;43.114;12.434;2023-06-01T03:18:44;99121.09;;;15.08;100.00
33280;BME280;20403;43.114;12.434;2023-06-01T03:21:09;99118.75;;;15.07;100.00
33280;BME280;20403;43.114;12.434;2023-06-01T03:23:35;99125.00;;;15.06;100.00
33280;BME280;20403;43.114;12.434;2023-06-01T03:26:01;99121.63;;;15.10;100.00
33280;BME280;20403;43.114;12.434;2023-06-01T03:28:29;99128.78;;;15.15;100.00
33280;BME280;20403;43.114;12.434;2023-06-01T03:30:54;99127.94;;;15.09;100.00
33280;BME280;20403;43.114;12.434;2023-06-01T03:33:21;99130.19;;;14.96;100.00
33280;BME280;20403;43.114;12.434;2023-06-01T03:35:46;99132.81;;;14.96;100.00
33280;BME280;20403;43.114;12.434;2023-06-01T03:38:12;99122.47;;;14.84;100.00
33280;BME280;20403;43.114;12.434;2023-06-01T03:40:37;99127.06;;;14.71;100.00
33280;BME280;20403;43.114;12.434;2023-06-01T03:43:02;99120.19;;;14.65;100.00
33280;BME280;20403;43.114;12.434;2023-06-01T03:45:28;99124.41;;;14.66;100.00
33280;BME280;20403;43.114;12.434;2023-06-01T03:47:53;99131.03;;;14.74;100.00
33280;BME280;20403;43.114;12.434;2023-06-01T03:50:19;99128.72;;;14.78;100.00
33280;BME280;20403;43.114;12.434;2023-06-01T03:52:44;99129.75;;;14.77;100.00
33280;BME280;20403;43.114;12.434;2023-06-01T03:55:10;99127.97;;;14.82;100.00
33280;BME280;20403;43.114;12.434;2023-06-01T03:57:38;99128.72;;;14.78;100.00
33280;BME280;20403;43.114;12.434;2023-06-01T04:00:05;99132.13;;;14.78;100.00
33280;BME280;20403;43.114;12.434;2023-06-01T04:02:45;99137.09;;;14.75;100.00
33280;BME280;20403;43.114;12.434;2023-06-01T04:05:12;99131.53;;;14.71;100.00
33280;BME280;20403;43.114;12.434;2023-06-01T04:07:45;99130.50;;;14.72;100.00
33280;BME280;20403;43.114;12.434;2023-06-01T04:10:11;99128.47;;;14.79;100.00
33280;BME280;20403;43.114;12.434;2023-06-01T04:12:39;99135.06;;;14.82;100.00
33280;BME280;20403;43.114;12.434;2023-06-01T04:15:05;99138.22;;;14.84;100.00
33280;BME280;20403;43.114;12.434;2023-06-01T04:17:30;99128.78;;;14.88;100.00
33280;BME280;20403;43.114;12.434;2023-06-01T04:19:56;99134.38;;;14.97;100.00
33280;BME280;20403;43.114;12.434;2023-06-01T04:22:21;99135.94;;;14.92;100.00
33280;BME280;20403;43.114;12.434;2023-06-01T04:24:46;99137.22;;;14.90;100.00
33280;BME280;20403;43.114;12.434;2023-06-01T04:27:12;99134.66;;;14.95;100.00
33280;BME280;20403;43.114;12.434;2023-06-01T04:29:43;99132.34;;;15.36;100.00
33280;BME280;20403;43.114;12.434;2023-06-01T04:32:09;99127.78;;;15.64;100.00
33280;BME280;20403;43.114;12.434;2023-06-01T04:34:35;99127.91;;;15.74;100.00
33280;BME280;20403;43.114;12.434;2023-06-01T04:37:00;99119.72;;;15.70;100.00
33280;BME280;20403;43.114;12.434;2023-06-01T04:39:29;99129.22;;;15.71;100.00
33280;BME280;20403;43.114;12.434;2023-06-01T04:41:55;99124.50;;;15.79;100.00
33280;BME280;20403;43.114;12.434;2023-06-01T04:44:20;99122.34;;;15.70;100.00
33280;BME280;20403;43.114;12.434;2023-06-01T04:46:46;99131.34;;;15.80;100.00
33280;BME280;20403;43.114;12.434;2023-06-01T04:49:15;99136.91;;;15.88;100.00
33280;BME280;20403;43.114;12.434;2023-06-01T04:51:41;99134.75;;;15.80;100.00
33280;BME280;20403;43.114;12.434;2023-06-01T04:54:07;99145.59;;;15.94;100.00
33280;BME280;20403;43.114;12.434;2023-06-01T04:56:32;99138.31;;;16.06;100.00
33280;BME280;20403;43.114;12.434;2023-06-01T04:58:58;99138.88;;;16.13;100.00
33280;BME280;20403;43.114;12.434;2023-06-01T05:01:25;99144.91;;;16.14;100.00
33280;BME280;20403;43.114;12.434;2023-06-01T05:03:51;99138.88;;;16.13;100.00
33280;BME280;20403;43.114;12.434;2023-06-01T05:06:19;99140.19;;;16.11;100.00
33280;BME280;20403;43.114;12.434;2023-06-01T05:08:45;99129.69;;;16.16;100.00
33280;BME280;20403;43.114;12.434;2023-06-01T05:11:11;99138.31;;;16.06;100.00
33280;BME280;20403;43.114;12.434;2023-06-01T05:13:40;99136.25;;;16.18;100.00
33280;BME280;20403;43.114;12.434;2023-06-01T05:16:07;99124.94;;;16.13;100.00
33280;BME280;20403;43.114;12.434;2023-06-01T05:18:33;99132.56;;;16.20;100.00
33280;BME280;20403;43.114;12.434;2023-06-01T05:21:00;99130.25;;;16.33;100.00
33280;BME280;20403;43.114;12.434;2023-06-01T05:23:26;99129.75;;;16.42;100.00
33280;BME280;20403;43.114;12.434;2023-06-01T05:25:52;99132.69;;;16.45;100.00
33280;BME280;20403;43.114;12.434;2023-06-01T05:28:17;99122.69;;;16.57;100.00
33280;BME280;20403;43.114;12.434;2023-06-01T05:30:43;99126.66;;;16.65;100.00
33280;BME280;20403;43.114;12.434;2023-06-01T05:33:08;99125.09;;;16.74;100.00
33280;BME280;20403;43.114;12.434;2023-06-01T05:35:34;99127.50;;;16.86;100.00
33280;BME280;20403;43.114;12.434;2023-06-01T05:38:00;99122.50;;;17.00;100.00
33280;BME280;20403;43.114;12.434;2023-06-01T05:40:25;99130.44;;;17.10;100.00
33280;BME280;20403;43.114;12.434;2023-06-01T05:42:51;99130.94;;;17.22;100.00
33280;BME280;20403;43.114;12.434;2023-06-01T05:45:16;99132.28;;;17.35;100.00
33280;BME280;20403;43.114;12.434;2023-06-01T05:47:42;99135.66;;;17.51;100.00
33280;BME280;20403;43.114;12.434;2023-06-01T05:50:08;99133.28;;;17.60;100.00
33280;BME280;20403;43.114;12.434;2023-06-01T05:52:33;99138.53;;;17.75;100.00
33280;BME280;20403;43.114;12.434;2023-06-01T05:54:58;99132.72;;;17.73;100.00
33280;BME280;20403;43.114;12.434;2023-06-01T05:57:24;99134.84;;;17.81;100.00
33280;BME280;20403;43.114;12.434;2023-06-01T05:59:49;99140.13;;;17.81;100.00
33280;BME280;20403;43.114;12.434;2023-06-01T06:02:15;99137.72;;;17.85;100.00
33280;BME280;20403;43.114;12.434;2023-06-01T06:04:41;99136.13;;;17.94;100.00
33280;BME280;20403;43.114;12.434;2023-06-01T06:07:08;99135.56;;;18.02;100.00
33280;BME280;20403;43.114;12.434;2023-06-01T06:09:34;99137.66;;;18.05;100.00
33280;BME280;20403;43.114;12.434;2023-06-01T06:11:59;99137.38;;;18.12;100.00
33280;BME280;20403;43.114;12.434;2023-06-01T06:14:25;99145.53;;;18.16;100.00
33280;BME280;20403;43.114;12.434;2023-06-01T06:16:50;99141.00;;;18.26;100.00
33280;BME280;20403;43.114;12.434;2023-06-01T06:19:16;99143.88;;;18.35;100.00
33280;BME280;20403;43.114;12.434;2023-06-01T06:21:41;99144.81;;;18.55;100.00
33280;BME280;20403;43.114;12.434;2023-06-01T06:24:07;99142.69;;;18.62;100.00
33280;BME280;20403;43.114;12.434;2023-06-01T06:26:32;99140.56;;;18.64;100.00
33280;BME280;20403;43.114;12.434;2023-06-01T06:28:58;99148.72;;;18.67;100.00
33280;BME280;20403;43.114;12.434;2023-06-01T06:31:23;99151.84;;;18.80;100.00
33280;BME280;20403;43.114;12.434;2023-06-01T06:33:49;99146.25;;;18.86;100.00
33280;BME280;20403;43.114;12.434;2023-06-01T06:36:15;99151.72;;;19.00;100.00
33280;BME280;20403;43.114;12.434;2023-06-01T06:38:41;99155.53;;;19.18;100.00
33280;BME280;20403;43.114;12.434;2023-06-01T06:41:06;99152.50;;;19.35;100.00
33280;BME280;20403;43.114;12.434;2023-06-01T06:43:32;99151.00;;;19.53;100.00
33280;BME280;20403;43.114;12.434;2023-06-01T06:45:57;99144.25;;;19.71;100.00
33280;BME280;20403;43.114;12.434;2023-06-01T06:48:22;99140.41;;;19.82;100.00
33280;BME280;20403;43.114;12.434;2023-06-01T06:50:48;99147.88;;;19.80;100.00
33280;BME280;20403;43.114;12.434;2023-06-01T06:53:13;99147.63;;;20.01;100.00
33280;BME280;20403;43.114;12.434;2023-06-01T06:55:39;99146.50;;;20.07;100.00
33280;BME280;20403;43.114;12.434;2023-06-01T06:58:04;99139.06;;;20.09;100.00
33280;BME280;20403;43.114;12.434;2023-06-01T07:00:29;99142.50;;;20.28;100.00
33280;BME280;20403;43.114;12.434;2023-06-01T07:02:56;99144.19;;;20.43;100.00
33280;BME280;20403;43.114;12.434;2023-06-01T07:05:23;99145.56;;;20.41;100.00
33280;BME280;20403;43.114;12.434;2023-06-01T07:07:49;99140.56;;;20.58;100.00
33280;BME280;20403;43.114;12.434;2023-06-01T07:10:14;99143.13;;;20.63;100.00
33280;BME280;20403;43.114;12.434;2023-06-01T07:12:39;99147.88;;;20.85;100.00
33280;BME280;20403;43.114;12.434;2023-06-01T07:15:05;99138.97;;;20.95;100.00
33280;BME280;20403;43.114;12.434;2023-06-01T07:17:31;99136.66;;;21.07;100.00
33280;BME280;20403;43.114;12.434;2023-06-01T07:19:57;99139.28;;;21.26;100.00
33280;BME280;20403;43.114;12.434;2023-06-01T07:22:23;99136.25;;;21.33;100.00
33280;BME280;20403;43.114;12.434;2023-06-01T07:24:48;99138.75;;;21.43;100.00
33280;BME280;20403;43.114;12.434;2023-06-01T07:27:14;99134.56;;;21.37;100.00
33280;BME280;20403;43.114;12.434;2023-06-01T07:29:39;99133.84;;;21.50;100.00
33280;BME280;20403;43.114;12.434;2023-06-01T07:32:06;99138.56;;;21.67;100.00
33280;BME280;20403;43.114;12.434;2023-06-01T07:34:32;99134.97;;;21.77;100.00
33280;BME280;20403;43.114;12.434;2023-06-01T07:36:59;99126.00;;;21.87;100.00
33280;BME280;20403;43.114;12.434;2023-06-01T07:39:25;99132.38;;;21.99;100.00
33280;BME280;20403;43.114;12.434;2023-06-01T07:41:51;99126.28;;;22.27;100.00
33280;BME280;20403;43.114;12.434;2023-06-01T07:44:19;99127.84;;;22.41;100.00
33280;BME280;20403;43.114;12.434;2023-06-01T07:46:45;99128.22;;;22.49;100.00
33280;BME280;20403;43.114;12.434;2023-06-01T07:49:10;99120.97;;;22.27;100.00
33280;BME280;20403;43.114;12.434;2023-06-01T07:51:40;99121.19;;;22.30;100.00
33280;BME280;20403;43.114;12.434;2023-06-01T07:54:05;99112.56;;;22.47;100.00
33280;BME280;20403;43.114;12.434;2023-06-01T07:56:32;99106.72;;;22.59;100.00
33280;BME280;20403;43.114;12.434;2023-06-01T07:58:57;99111.63;;;22.65;100.00
33280;BME280;20403;43.114;12.434;2023-06-01T08:01:22;99109.69;;;22.80;100.00
33280;BME280;20403;43.114;12.434;2023-06-01T08:03:48;99114.13;;;23.07;100.00
33280;BME280;20403;43.114;12.434;2023-06-01T08:06:14;99107.19;;;23.28;100.00
33280;BME280;20403;43.114;12.434;2023-06-01T08:08:40;99098.69;;;23.49;100.00
33280;BME280;20403;43.114;12.434;2023-06-01T08:11:06;99095.50;;;23.38;100.00
33280;BME280;20403;43.114;12.434;2023-06-01T08:13:31;99094.75;;;23.46;100.00
33280;BME280;20403;43.114;12.434;2023-06-01T08:16:00;99094.06;;;23.72;100.00
33280;BME280;20403;43.114;12.434;2023-06-01T08:18:25;99090.53;;;23.85;100.00
33280;BME280;20403;43.114;12.434;2023-06-01T08:20:51;99094.28;;;23.84;100.00
33280;BME280;20403;43.114;12.434;2023-06-01T08:23:16;99087.66;;;23.73;100.00
33280;BME280;20403;43.114;12.434;2023-06-01T08:25:45;99090.53;;;23.85;100.00
33280;BME280;20403;43.114;12.434;2023-06-01T08:28:10;99097.78;;;24.11;100.00
33280;BME280;20403;43.114;12.434;2023-06-01T08:30:36;99089.19;;;24.23;100.00
33280;BME280;20403;43.114;12.434;2023-06-01T08:33:01;99083.22;;;24.08;100.00
33280;BME280;20403;43.114;12.434;2023-06-01T08:35:28;99090.84;;;23.93;100.00
33280;BME280;20403;43.114;12.434;2023-06-01T08:37:53;99091.16;;;23.91;100.00
33280;BME280;20403;43.114;12.434;2023-06-01T08:40:19;99090.72;;;24.06;100.00
33280;BME280;20403;43.114;12.434;2023-06-01T08:45:11;99104.03;;;24.06;100.00
33280;BME280;20403;43.114;12.434;2023-06-01T08:47:38;99093.72;;;24.22;100.00
33280;BME280;20403;43.114;12.434;2023-06-01T08:50:04;99096.56;;;24.35;100.00
33280;BME280;20403;43.114;12.434;2023-06-01T08:52:31;99087.31;;;24.67;100.00
33280;BME280;20403;43.114;12.434;2023-06-01T08:55:00;99081.81;;;24.89;100.00
33280;BME280;20403;43.114;12.434;2023-06-01T08:57:28;99083.16;;;25.13;100.00
33280;BME280;20403;43.114;12.434;2023-06-01T08:59:55;99078.25;;;25.32;100.00
33280;BME280;20403;43.114;12.434;2023-06-01T09:02:20;99075.69;;;25.45;100.00
33280;BME280;20403;43.114;12.434;2023-06-01T09:04:45;99082.97;;;25.27;100.00
33280;BME280;20403;43.114;12.434;2023-06-01T09:07:12;99081.31;;;25.05;100.00
33280;BME280;20403;43.114;12.434;2023-06-01T09:09:38;99080.41;;;24.83;100.00
33280;BME280;20403;43.114;12.434;2023-06-01T09:15:11;99085.88;;;24.95;100.00
33280;BME280;20403;43.114;12.434;2023-06-01T09:17:39;99086.31;;;24.98;97.41
33280;BME280;20403;43.114;12.434;2023-06-01T09:20:05;99079.53;;;25.17;100.00
33280;BME280;20403;43.114;12.434;2023-06-01T11:38:04;98952.66;;;28.98;49.56
33280;BME280;20403;43.114;12.434;2023-06-01T11:40:29;98953.63;;;29.21;47.77
33280;BME280;20403;43.114;12.434;2023-06-01T11:42:55;98956.72;;;28.60;49.34
33280;BME280;20403;43.114;12.434;2023-06-01T11:45:20;98948.16;;;28.10;51.82
33280;BME280;20403;43.114;12.434;2023-06-01T11:47:46;98958.66;;;27.62;56.67
33280;BME280;20403;43.114;12.434;2023-06-01T11:50:22;98957.63;;;27.27;54.73
33280;BME280;20403;43.114;12.434;2023-06-01T11:52:50;98958.47;;;26.94;60.79
33280;BME280;20403;43.114;12.434;2023-06-01T11:55:15;98959.00;;;26.75;57.84
33280;BME280;20403;43.114;12.434;2023-06-01T11:57:42;98954.84;;;26.53;56.06
33280;BME280;20403;43.114;12.434;2023-06-01T12:00:10;98953.09;;;26.36;60.90
33280;BME280;20403;43.114;12.434;2023-06-01T12:02:39;98940.78;;;26.44;55.94
33280;BME280;20403;43.114;12.434;2023-06-01T12:05:06;98940.28;;;27.12;57.32
33280;BME280;20403;43.114;12.434;2023-06-01T12:07:46;98940.78;;;27.66;49.48
33280;BME280;20403;43.114;12.434;2023-06-01T12:10:13;98939.56;;;28.48;49.82
33280;BME280;20403;43.114;12.434;2023-06-01T12:12:41;98938.44;;;29.29;50.81
33280;BME280;20403;43.114;12.434;2023-06-01T12:15:09;98939.78;;;29.93;48.04
33280;BME280;20403;43.114;12.434;2023-06-01T12:17:53;98936.31;;;29.93;47.60
33280;BME280;20403;43.114;12.434;2023-06-01T12:20:33;98943.53;;;29.69;50.07
33280;BME280;20403;43.114;12.434;2023-06-01T12:23:00;98940.69;;;29.27;52.84
33280;BME280;20403;43.114;12.434;2023-06-01T12:25:29;98941.13;;;28.81;52.18
33280;BME280;20403;43.114;12.434;2023-06-01T12:28:04;98935.09;;;28.68;53.29
33280;BME280;20403;43.114;12.434;2023-06-01T12:30:30;98928.97;;;28.68;54.99
33280;BME280;20403;43.114;12.434;2023-06-01T12:32:56;98925.44;;;28.36;55.06
33280;BME280;20403;43.114;12.434;2023-06-01T12:35:21;98930.31;;;28.02;56.98
33280;BME280;20403;43.114;12.434;2023-06-01T12:38:08;98930.28;;;27.74;59.48
33280;BME280;20403;43.114;12.434;2023-06-01T12:40:38;98948.78;;;27.38;60.86
33280;BME280;20403;43.114;12.434;2023-06-01T12:43:04;98946.97;;;26.81;74.55
33280;BME280;20403;43.114;12.434;2023-06-01T12:45:40;98946.59;;;26.25;88.15
33280;BME280;20403;43.114;12.434;2023-06-01T12:48:06;98953.94;;;25.94;92.80
33280;BME280;20403;43.114;12.434;2023-06-01T12:50:31;98953.16;;;25.73;96.33
33280;BME280;20403;43.114;12.434;2023-06-01T12:52:56;98950.06;;;25.41;97.26
33280;BME280;20403;43.114;12.434;2023-06-01T12:55:22;98950.66;;;25.17;97.37
33280;BME280;20403;43.114;12.434;2023-06-01T12:57:54;98955.16;;;24.95;91.68
33280;BME280;20403;43.114;12.434;2023-06-01T13:00:21;98955.88;;;24.75;98.36
33280;BME280;20403;43.114;12.434;2023-06-01T13:02:47;98948.31;;;24.77;100.00
33280;BME280;20403;43.114;12.434;2023-06-01T13:05:14;98950.53;;;24.75;100.00
33280;BME280;20403;43.114;12.434;2023-06-01T13:07:42;98942.69;;;24.70;100.00
33280;BME280;20403;43.114;12.434;2023-06-01T13:10:08;98937.81;;;24.72;100.00
33280;BME280;20403;43.114;12.434;2023-06-01T13:12:35;98940.56;;;24.55;100.00
33280;BME280;20403;43.114;12.434;2023-06-01T13:15:01;98943.84;;;24.43;100.00
33280;BME280;20403;43.114;12.434;2023-06-01T13:17:28;98949.84;;;24.14;100.00
33280;BME280;20403;43.114;12.434;2023-06-01T13:19:54;98951.56;;;23.75;100.00
33280;BME280;20403;43.114;12.434;2023-06-01T13:22:20;98958.25;;;23.46;100.00
33280;BME280;20403;43.114;12.434;2023-06-01T13:24:47;98968.19;;;23.23;100.00
33280;BME280;20403;43.114;12.434;2023-06-01T13:27:13;98968.19;;;22.92;100.00
33280;BME280;20403;43.114;12.434;2023-06-01T13:29:39;98969.97;;;22.65;100.00
33280;BME280;20403;43.114;12.434;2023-06-01T13:32:05;98962.34;;;22.50;100.00
33280;BME280;20403;43.114;12.434;2023-06-01T13:34:30;98951.09;;;22.21;100.00
33280;BME280;20403;43.114;12.434;2023-06-01T13:36:57;98958.19;;;22.12;100.00
33280;BME280;20403;43.114;12.434;2023-06-01T13:39:23;98952.31;;;22.01;100.00
33280;BME280;20403;43.114;12.434;2023-06-01T13:41:48;98957.44;;;21.98;100.00
33280;BME280;20403;43.114;12.434;2023-06-01T13:44:14;98961.50;;;21.95;100.00
33280;BME280;20403;43.114;12.434;2023-06-01T13:46:40;98967.28;;;21.97;100.00
33280;BME280;20403;43.114;12.434;2023-06-01T13:49:05;98964.63;;;21.97;100.00
33280;BME280;20403;43.114;12.434;2023-06-01T13:51:32;98961.53;;;21.81;100.00
33280;BME280;20403;43.114;12.434;2023-06-01T13:53:58;98956.34;;;21.63;100.00
33280;BME280;20403;43.114;12.434;2023-06-01T13:56:24;98962.75;;;21.61;100.00
33280;BME280;20403;43.114;12.434;2023-06-01T13:58:50;98959.97;;;21.67;100.00
33280;BME280;20403;43.114;12.434;2023-06-01T14:01:15;98970.34;;;21.91;100.00
33280;BME280;20403;43.114;12.434;2023-06-01T14:03:41;98967.59;;;22.18;100.00
33280;BME280;20403;43.114;12.434;2023-06-01T14:06:06;98972.59;;;22.20;100.00
33280;BME280;20403;43.114;12.434;2023-06-01T14:08:32;98963.09;;;22.41;100.00
33280;BME280;20403;43.114;12.434;2023-06-01T14:10:57;98957.16;;;22.67;100.00
33280;BME280;20403;43.114;12.434;2023-06-01T14:13:23;98954.97;;;23.00;100.00
33280;BME280;20403;43.114;12.434;2023-06-01T14:15:48;98953.28;;;23.04;100.00
33280;BME280;20403;43.114;12.434;2023-06-01T14:18:13;98956.63;;;22.96;100.00
33280;BME280;20403;43.114;12.434;2023-06-01T14:20:39;98962.81;;;22.74;100.00
33280;BME280;20403;43.114;12.434;2023-06-01T14:23:04;98972.63;;;22.42;100.00
33280;BME280;20403;43.114;12.434;2023-06-01T14:25:30;98982.97;;;22.21;100.00
33280;BME280;20403;43.114;12.434;2023-06-01T14:27:55;98969.28;;;21.78;100.00
33280;BME280;20403;43.114;12.434;2023-06-01T14:30:20;98983.09;;;21.52;100.00
33280;BME280;20403;43.114;12.434;2023-06-01T14:32:46;98977.19;;;21.28;100.00
33280;BME280;20403;43.114;12.434;2023-06-01T14:35:11;98976.78;;;21.34;100.00
33280;BME280;20403;43.114;12.434;2023-06-01T14:37:42;98979.84;;;21.28;100.00
33280;BME280;20403;43.114;12.434;2023-06-01T14:40:08;98976.69;;;21.26;100.00
33280;BME280;20403;43.114;12.434;2023-06-01T14:42:33;98985.06;;;21.33;100.00
33280;BME280;20403;43.114;12.434;2023-06-01T14:44:59;98987.03;;;21.41;100.00
33280;BME280;20403;43.114;12.434;2023-06-01T14:47:24;98984.09;;;21.56;100.00
33280;BME280;20403;43.114;12.434;2023-06-01T14:49:50;98978.44;;;21.72;100.00
33280;BME280;20403;43.114;12.434;2023-06-01T14:52:15;98982.84;;;21.76;100.00
33280;BME280;20403;43.114;12.434;2023-06-01T14:54:41;98979.13;;;21.77;100.00
33280;BME280;20403;43.114;12.434;2023-06-01T14:57:06;98973.81;;;21.77;100.00
33280;BME280;20403;43.114;12.434;2023-06-01T14:59:32;98965.66;;;21.74;100.00
33280;BME280;20403;43.114;12.434;2023-06-01T15:02:01;98960.19;;;21.70;100.00
33280;BME280;20403;43.114;12.434;2023-06-01T15:04:29;98962.13;;;21.65;100.00
33280;BME280;20403;43.114;12.434;2023-06-01T15:06:54;98954.97;;;21.65;100.00